Aviation Digital Data Service (ADDS)

Output produced by METARs form (1732 UTC 21 September 2019)
found at http://aviationweather.gov/metar/data/
 
KUTS 211653Z AUTO VRB05KT 10SM FEW027 SCT039 30/22 A3011 RMK AO2 SLP191 T03000222
KUTS 211720Z 2118/2218 14007KT P6SM SCT025 
     FM212000 14007KT P6SM SCT030 BKN100 
     FM221000 VRB03KT P6SM BKN025 
     FM221500 17007KT P6SM SCT030